Time;durP1;ratioP1;P1;durP2;ratioP2;P2;SDS_P1;SDS_P2;PMS_P1;PMS_P2;Temp;Humidity;BMP_temperature;BMP_pressure;BME280_temperature;BME280_humidity;BME280_pressure;Samples;Min_cycle;Max_cycle;Signal;HPM_P1;HPM_P2
2022/12/22 03:26:23;;;;;;;62.47;23.02;;;;;;;;;;5162223;27;20142;-72
2022/12/22 03:28:49;;;;;;;56.92;24.42;;;;;;;;;;5161187;27;20058;-72
2022/12/22 03:31:15;;;;;;;56.95;23.65;;;;;;;;;;5161006;27;20403;-72
2022/12/22 03:33:42;;;;;;;66.88;24.83;;;;;;;;;;5161315;27;20530;-72
2022/12/22 03:36:09;;;;;;;64.82;23.38;;;;;;;;;;5165855;27;20053;-72
2022/12/22 03:38:35;;;;;;;69.90;24.63;;;;;;;;;;5159656;27;20058;-73
2022/12/22 03:41:02;;;;;;;71.03;25.15;;;;;;;;;;5158854;27;20050;-73
2022/12/22 03:46:30;;;;;;;74.20;25.92;;;;;;;;;;5160305;27;20911;-73
2022/12/22 03:49:10;;;;;;;66.72;23.33;;;;;;;;;;5145905;27;20054;-73
2022/12/22 03:51:44;;;;;;;68.03;23.10;;;;;;;;;;5161893;27;20066;-73
2022/12/22 03:54:12;;;;;;;70.90;23.67;;;;;;;;;;5162336;27;20047;-73
2022/12/22 03:56:39;;;;;;;82.43;25.35;;;;;;;;;;5162124;27;20047;-73
2022/12/22 03:59:06;;;;;;;68.63;24.77;;;;;;;;;;5157625;27;20070;-73
2022/12/22 04:01:33;;;;;;;64.45;24.33;;;;;;;;;;5164386;27;20051;-73
2022/12/22 04:03:59;;;;;;;61.38;22.80;;;;;;;;;;5162300;27;20975;-73
2022/12/22 04:06:26;;;;;;;62.10;23.77;;;;;;;;;;5158314;27;20477;-73
2022/12/22 04:08:52;;;;;;;61.15;22.67;;;;;;;;;;5157570;27;20174;-73
2022/12/22 04:14:04;;;;;;;68.03;23.25;;;;;;;;;;5158254;27;20443;-73
2022/12/22 04:16:30;;;;;;;62.50;23.23;;;;;;;;;;5162356;27;20543;-73
2022/12/22 04:18:57;;;;;;;64.47;22.13;;;;;;;;;;5162990;27;20075;-73
2022/12/22 04:21:23;;;;;;;63.65;23.40;;;;;;;;;;5160633;27;20491;-73
2022/12/22 04:23:53;;;;;;;67.18;22.83;;;;;;;;;;5163478;27;20532;-73
2022/12/22 04:26:20;;;;;;;64.38;22.80;;;;;;;;;;5151546;27;20411;-73
2022/12/22 04:28:46;;;;;;;58.22;22.60;;;;;;;;;;5157421;27;20073;-73
2022/12/22 04:31:13;;;;;;;55.22;22.67;;;;;;;;;;5161279;27;20057;-73
2022/12/22 04:33:39;;;;;;;56.28;21.80;;;;;;;;;;5154330;27;20057;-73
2022/12/22 04:36:06;;;;;;;55.17;21.67;;;;;;;;;;5137104;27;20094;-72
2022/12/22 04:38:33;;;;;;;53.45;22.65;;;;;;;;;;5163589;27;20160;-73
2022/12/22 04:40:59;;;;;;;61.35;21.75;;;;;;;;;;5144501;27;20310;-73
2022/12/22 04:43:25;;;;;;;60.97;22.27;;;;;;;;;;5158197;27;20050;-73
2022/12/22 04:45:53;;;;;;;64.82;21.83;;;;;;;;;;5164424;27;20107;-72
2022/12/22 04:48:20;;;;;;;53.67;21.15;;;;;;;;;;5160004;27;20076;-72
2022/12/22 04:50:50;;;;;;;52.13;21.17;;;;;;;;;;5141682;27;20053;-73
2022/12/22 04:53:16;;;;;;;53.05;21.02;;;;;;;;;;5153043;27;20567;-73
2022/12/22 04:55:46;;;;;;;56.42;22.70;;;;;;;;;;5162352;27;20072;-73
2022/12/22 04:58:13;;;;;;;62.17;21.25;;;;;;;;;;5158532;27;20054;-74
2022/12/22 05:00:40;;;;;;;62.67;20.73;;;;;;;;;;5163388;27;20561;-73
2022/12/22 05:03:06;;;;;;;52.55;19.92;;;;;;;;;;5156220;27;20058;-74
2022/12/22 05:05:33;;;;;;;56.50;20.45;;;;;;;;;;5164884;27;20055;-74
2022/12/22 05:07:59;;;;;;;62.42;20.92;;;;;;;;;;5161244;27;20714;-74
2022/12/22 05:10:25;;;;;;;61.28;21.20;;;;;;;;;;5147932;27;20594;-74
2022/12/22 05:12:55;;;;;;;63.60;21.40;;;;;;;;;;5161175;27;20043;-74
2022/12/22 05:15:22;;;;;;;71.13;22.98;;;;;;;;;;5157920;27;20043;-71
2022/12/22 05:17:49;;;;;;;53.67;20.20;;;;;;;;;;5149469;27;20054;-75
2022/12/22 05:20:15;;;;;;;55.47;21.45;;;;;;;;;;5154501;27;20057;-75
2022/12/22 05:22:45;;;;;;;52.90;19.80;;;;;;;;;;5160462;27;20054;-75
2022/12/22 05:25:12;;;;;;;54.38;20.20;;;;;;;;;;5161526;27;20107;-74
2022/12/22 05:27:38;;;;;;;55.28;19.77;;;;;;;;;;5160175;27;20047;-74
2022/12/22 05:30:05;;;;;;;56.03;20.30;;;;;;;;;;5162103;27;20111;-75
2022/12/22 05:32:32;;;;;;;59.30;21.17;;;;;;;;;;5158982;27;20043;-74
2022/12/22 05:34:58;;;;;;;55.25;21.60;;;;;;;;;;5155201;27;20051;-74
2022/12/22 05:37:24;;;;;;;55.65;20.38;;;;;;;;;;5157550;27;20416;-74
2022/12/22 05:39:51;;;;;;;57.25;20.98;;;;;;;;;;5160916;27;20047;-74
2022/12/22 05:42:34;;;;;;;56.80;19.42;;;;;;;;;;5160625;27;20424;-74
2022/12/22 05:45:04;;;;;;;45.17;18.92;;;;;;;;;;5161328;27;20055;-74
2022/12/22 05:47:30;;;;;;;48.00;18.88;;;;;;;;;;5155965;27;20043;-74
2022/12/22 05:49:56;;;;;;;60.60;19.55;;;;;;;;;;5142856;27;20047;-74
2022/12/22 05:52:23;;;;;;;58.33;20.13;;;;;;;;;;5163470;27;20322;-74
2022/12/22 05:54:49;;;;;;;52.17;19.08;;;;;;;;;;5158401;27;20119;-74
2022/12/22 05:57:15;;;;;;;45.58;17.52;;;;;;;;;;5161062;27;20081;-74
2022/12/22 05:59:42;;;;;;;52.08;19.00;;;;;;;;;;5159563;27;20050;-74
2022/12/22 06:02:08;;;;;;;52.45;18.92;;;;;;;;;;5142853;27;20058;-74
2022/12/22 06:04:35;;;;;;;53.90;18.83;;;;;;;;;;5153456;27;20057;-75
2022/12/22 06:07:01;;;;;;;47.83;18.23;;;;;;;;;;5159625;27;20047;-74
2022/12/22 06:09:28;;;;;;;56.38;18.55;;;;;;;;;;5146245;27;20044;-74
2022/12/22 06:11:54;;;;;;;52.65;17.20;;;;;;;;;;5162253;27;20051;-73
2022/12/22 06:14:20;;;;;;;58.42;19.77;;;;;;;;;;5162279;27;20051;-74
2022/12/22 06:16:47;;;;;;;54.92;19.25;;;;;;;;;;5163362;27;20074;-74
2022/12/22 06:19:13;;;;;;;56.50;18.95;;;;;;;;;;5150901;27;20134;-74
2022/12/22 06:21:40;;;;;;;55.20;19.73;;;;;;;;;;5164094;27;20429;-74
2022/12/22 06:24:06;;;;;;;57.13;20.92;;;;;;;;;;5164327;27;20054;-73
2022/12/22 06:26:33;;;;;;;63.22;21.23;;;;;;;;;;5158323;27;20854;-73
2022/12/22 06:28:59;;;;;;;61.78;22.33;;;;;;;;;;5165455;27;20520;-73
2022/12/22 06:31:25;;;;;;;61.78;21.15;;;;;;;;;;5155061;27;20056;-73
2022/12/22 06:33:52;;;;;;;56.30;21.55;;;;;;;;;;5162741;27;20051;-73
2022/12/22 06:36:18;;;;;;;62.70;22.58;;;;;;;;;;5158183;27;20130;-72
2022/12/22 06:38:44;;;;;;;59.05;21.17;;;;;;;;;;5158576;27;20676;-72
2022/12/22 06:41:11;;;;;;;50.97;20.58;;;;;;;;;;5159214;27;20078;-73
2022/12/22 06:43:38;;;;;;;61.78;20.88;;;;;;;;;;5155595;27;20051;-74
2022/12/22 06:46:04;;;;;;;56.20;21.58;;;;;;;;;;5147605;27;20054;-72
2022/12/22 06:48:30;;;;;;;64.68;21.85;;;;;;;;;;5152759;27;20151;-71
2022/12/22 06:50:58;;;;;;;64.85;23.25;;;;;;;;;;5154796;27;20051;-72
2022/12/22 06:53:24;;;;;;;54.85;21.63;;;;;;;;;;5163207;27;20520;-73
2022/12/22 06:55:51;;;;;;;59.05;21.58;;;;;;;;;;5165078;27;20104;-74
2022/12/22 06:58:17;;;;;;;63.35;22.90;;;;;;;;;;5119335;27;20678;-74
2022/12/22 07:00:47;;;;;;;63.25;21.33;;;;;;;;;;5159705;27;20051;-73
2022/12/22 07:03:13;;;;;;;60.03;21.35;;;;;;;;;;5160399;27;20617;-73
2022/12/22 07:05:40;;;;;;;54.10;20.15;;;;;;;;;;5145913;27;20054;-73
2022/12/22 07:08:07;;;;;;;61.05;22.83;;;;;;;;;;5161761;27;20593;-73
2022/12/22 07:13:19;;;;;;;59.58;21.92;;;;;;;;;;5163796;27;20134;-74
2022/12/22 07:15:46;;;;;;;57.60;21.23;;;;;;;;;;5147523;27;20050;-73
2022/12/22 07:18:23;;;;;;;62.00;21.05;;;;;;;;;;5147506;27;20044;-73
2022/12/22 07:20:49;;;;;;;52.05;19.83;;;;;;;;;;5152309;27;20653;-73
2022/12/22 07:23:15;;;;;;;54.58;20.15;;;;;;;;;;5153947;27;20141;-73
2022/12/22 07:25:42;;;;;;;46.75;17.98;;;;;;;;;;5151502;27;20073;-73
2022/12/22 07:28:08;;;;;;;45.97;17.92;;;;;;;;;;5147427;27;20134;-73
2022/12/22 07:30:41;;;;;;;42.95;16.00;;;;;;;;;;5145367;27;20047;-72
2022/12/22 07:33:08;;;;;;;45.15;16.52;;;;;;;;;;5151177;27;20039;-73
2022/12/22 07:35:35;;;;;;;47.53;17.48;;;;;;;;;;5158363;27;20054;-73
2022/12/22 07:38:01;;;;;;;61.72;18.88;;;;;;;;;;5145922;27;20059;-73
2022/12/22 07:40:27;;;;;;;48.13;16.67;;;;;;;;;;5151746;27;20500;-72
2022/12/22 07:42:58;;;;;;;56.88;18.70;;;;;;;;;;5161725;27;20158;-73
2022/12/22 07:45:24;;;;;;;48.83;17.05;;;;;;;;;;5143850;27;20465;-72
2022/12/22 07:47:51;;;;;;;44.42;14.70;;;;;;;;;;5149624;27;20050;-73
2022/12/22 07:50:26;;;;;;;40.38;16.27;;;;;;;;;;5148512;27;20451;-73
2022/12/22 07:52:57;;;;;;;42.90;15.68;;;;;;;;;;5162529;27;20071;-73
2022/12/22 07:55:24;;;;;;;44.30;14.45;;;;;;;;;;5144711;27;20531;-72
2022/12/22 07:57:51;;;;;;;46.13;14.88;;;;;;;;;;5160481;27;20504;-72
2022/12/22 08:00:18;;;;;;;44.85;14.68;;;;;;;;;;5162912;27;20700;-72
2022/12/22 08:02:51;;;;;;;47.33;15.30;;;;;;;;;;5154570;27;20077;-71
2022/12/22 08:05:18;;;;;;;47.55;14.95;;;;;;;;;;5146497;27;20136;-72
2022/12/22 08:07:45;;;;;;;44.60;14.48;;;;;;;;;;5163628;27;20046;-72
2022/12/22 08:10:11;;;;;;;41.63;14.45;;;;;;;;;;5158038;27;20057;-72
2022/12/22 08:12:38;;;;;;;47.63;15.18;;;;;;;;;;5162091;27;20055;-72
2022/12/22 08:15:05;;;;;;;49.85;15.73;;;;;;;;;;5151235;27;20051;-70
2022/12/22 08:17:31;;;;;;;49.60;14.20;;;;;;;;;;5165165;27;20050;-70
2022/12/22 08:19:58;;;;;;;49.65;13.73;;;;;;;;;;5153172;27;20130;-71
2022/12/22 08:22:24;;;;;;;44.58;14.75;;;;;;;;;;5145435;27;20047;-70
2022/12/22 08:24:51;;;;;;;49.97;15.82;;;;;;;;;;5149093;27;20191;-71
2022/12/22 08:27:19;;;;;;;38.17;13.45;;;;;;;;;;5143072;27;20051;-73
2022/12/22 08:29:54;;;;;;;46.35;13.57;;;;;;;;;;5151392;27;20051;-73
2022/12/22 08:32:20;;;;;;;38.22;13.20;;;;;;;;;;5150892;27;20126;-74
2022/12/22 08:34:49;;;;;;;39.47;14.07;;;;;;;;;;5154673;27;20061;-74
2022/12/22 08:37:17;;;;;;;37.78;12.90;;;;;;;;;;5160393;27;20118;-74
2022/12/22 08:39:45;;;;;;;31.13;12.93;;;;;;;;;;5163348;27;20053;-74
2022/12/22 08:42:13;;;;;;;38.08;11.95;;;;;;;;;;5161638;27;20508;-74
2022/12/22 08:44:39;;;;;;;37.65;13.05;;;;;;;;;;5149540;27;20043;-74
2022/12/22 08:47:06;;;;;;;33.20;11.88;;;;;;;;;;5142495;27;20044;-74
2022/12/22 08:49:42;;;;;;;31.17;11.45;;;;;;;;;;5154995;27;20078;-74
2022/12/22 08:52:08;;;;;;;41.15;13.25;;;;;;;;;;5151214;27;20055;-75
2022/12/22 08:54:43;;;;;;;33.63;11.38;;;;;;;;;;5150479;27;20565;-74
2022/12/22 08:57:09;;;;;;;28.98;10.75;;;;;;;;;;5154068;27;20478;-74
2022/12/22 08:59:36;;;;;;;30.65;10.70;;;;;;;;;;5150279;27;20077;-74
2022/12/22 09:02:05;;;;;;;29.95;9.75;;;;;;;;;;5157250;27;20496;-74
2022/12/22 09:04:32;;;;;;;27.70;9.68;;;;;;;;;;5164007;27;20202;-74
2022/12/22 09:06:59;;;;;;;25.00;9.73;;;;;;;;;;5162045;27;20054;-74
2022/12/22 09:09:25;;;;;;;23.27;8.90;;;;;;;;;;5157361;27;20055;-74
2022/12/22 09:11:51;;;;;;;27.33;9.60;;;;;;;;;;5152718;27;20054;-74
2022/12/22 09:14:18;;;;;;;27.15;9.88;;;;;;;;;;5152839;27;20093;-74
2022/12/22 09:16:44;;;;;;;27.30;10.75;;;;;;;;;;5147305;27;20050;-72
2022/12/22 09:19:11;;;;;;;33.35;15.45;;;;;;;;;;5155060;27;20198;-73
2022/12/22 09:21:37;;;;;;;43.70;23.70;;;;;;;;;;5154704;27;20432;-73
2022/12/22 09:24:06;;;;;;;39.05;18.58;;;;;;;;;;5144894;27;20058;-73
2022/12/22 09:26:32;;;;;;;36.05;16.92;;;;;;;;;;5156130;27;20129;-75
2022/12/22 09:28:59;;;;;;;33.65;13.70;;;;;;;;;;5155241;27;20565;-74
2022/12/22 09:31:25;;;;;;;59.67;37.03;;;;;;;;;;5143831;27;20480;-73
2022/12/22 09:33:52;;;;;;;36.83;13.05;;;;;;;;;;5158042;27;20065;-74
2022/12/22 09:36:20;;;;;;;33.95;22.58;;;;;;;;;;5159905;27;20388;-74
2022/12/22 09:38:47;;;;;;;33.22;18.60;;;;;;;;;;5164132;27;20518;-74
2022/12/22 09:41:14;;;;;;;27.77;10.52;;;;;;;;;;5160622;27;20118;-73
2022/12/22 09:43:40;;;;;;;32.22;11.07;;;;;;;;;;5154609;27;20515;-74
2022/12/22 09:46:18;;;;;;;20.95;10.15;;;;;;;;;;5157844;27;20047;-72
2022/12/22 09:48:45;;;;;;;21.67;11.65;;;;;;;;;;5163211;27;20047;-72
2022/12/22 09:51:12;;;;;;;24.20;12.05;;;;;;;;;;5150076;27;20051;-72
2022/12/22 09:53:39;;;;;;;23.33;9.98;;;;;;;;;;5148084;27;20049;-70
2022/12/22 09:56:10;;;;;;;21.52;10.55;;;;;;;;;;5151831;27;20047;-69
2022/12/22 09:58:36;;;;;;;14.98;8.18;;;;;;;;;;5164181;27;20528;-69
2022/12/22 10:01:21;;;;;;;18.08;8.07;;;;;;;;;;5166179;27;20055;-69
2022/12/22 10:03:56;;;;;;;20.37;8.13;;;;;;;;;;5164487;27;20317;-69
2022/12/22 10:06:33;;;;;;;19.65;7.63;;;;;;;;;;5146814;27;20725;-69
2022/12/22 10:09:22;;;;;;;18.63;9.00;;;;;;;;;;5155077;27;20058;-69
2022/12/22 10:12:13;;;;;;;24.10;8.20;;;;;;;;;;5147249;27;20120;-69
2022/12/22 10:14:41;;;;;;;23.70;8.77;;;;;;;;;;5149634;27;20058;-69
2022/12/22 10:17:22;;;;;;;19.08;7.53;;;;;;;;;;5165805;27;20046;-69
2022/12/22 10:19:50;;;;;;;18.45;8.10;;;;;;;;;;5162309;27;20573;-69
2022/12/22 10:22:28;;;;;;;18.90;9.38;;;;;;;;;;5157022;27;20054;-69
2022/12/22 10:24:54;;;;;;;23.30;8.52;;;;;;;;;;5158810;27;20101;-68
2022/12/22 10:27:22;;;;;;;21.20;8.55;;;;;;;;;;5160926;27;20058;-68
2022/12/22 10:30:14;;;;;;;14.80;7.60;;;;;;;;;;5151784;27;20051;-69
2022/12/22 10:32:41;;;;;;;15.95;7.60;;;;;;;;;;5150512;27;20154;-68
2022/12/22 10:35:07;;;;;;;19.75;8.60;;;;;;;;;;5156094;27;20061;-68
2022/12/22 10:37:38;;;;;;;18.27;9.38;;;;;;;;;;5149568;27;20040;-68
2022/12/22 10:40:17;;;;;;;16.80;10.85;;;;;;;;;;5164535;27;20054;-69
2022/12/22 10:42:50;;;;;;;14.95;8.20;;;;;;;;;;5161059;27;20533;-70
2022/12/22 10:45:18;;;;;;;24.60;12.45;;;;;;;;;;5163778;27;20126;-69
2022/12/22 10:47:47;;;;;;;20.30;9.98;;;;;;;;;;5165693;27;20464;-72
2022/12/22 10:50:13;;;;;;;24.77;10.20;;;;;;;;;;5160927;27;20061;-68
2022/12/22 10:52:40;;;;;;;17.63;9.93;;;;;;;;;;5159753;27;20049;-70
2022/12/22 10:55:14;;;;;;;19.17;11.45;;;;;;;;;;5162181;27;20043;-70
2022/12/22 10:57:41;;;;;;;18.75;9.25;;;;;;;;;;5166478;27;20135;-69
2022/12/22 11:00:24;;;;;;;20.15;9.35;;;;;;;;;;5155655;27;20074;-70
2022/12/22 11:02:52;;;;;;;16.20;8.18;;;;;;;;;;5152787;27;20054;-70
2022/12/22 11:05:19;;;;;;;24.08;9.98;;;;;;;;;;5144579;27;20108;-69
2022/12/22 11:07:48;;;;;;;15.82;8.82;;;;;;;;;;5164376;27;20050;-70
2022/12/22 11:10:17;;;;;;;13.27;8.63;;;;;;;;;;5165895;27;20045;-69
2022/12/22 11:12:43;;;;;;;16.75;7.50;;;;;;;;;;5148682;27;20063;-70
2022/12/22 11:15:19;;;;;;;19.83;7.97;;;;;;;;;;5161803;27;20577;-69
2022/12/22 11:17:49;;;;;;;16.63;8.85;;;;;;;;;;5159581;27;20057;-69
2022/12/22 11:20:25;;;;;;;24.55;8.90;;;;;;;;;;5149281;27;20055;-70
2022/12/22 11:22:57;;;;;;;16.90;8.38;;;;;;;;;;5147565;27;20052;-69
2022/12/22 11:25:30;;;;;;;15.00;7.63;;;;;;;;;;5147463;27;20051;-70
2022/12/22 11:28:15;;;;;;;18.40;8.82;;;;;;;;;;5156749;27;20071;-69
2022/12/22 11:30:44;;;;;;;17.88;8.13;;;;;;;;;;5165960;27;20059;-69
2022/12/22 11:33:28;;;;;;;16.40;9.35;;;;;;;;;;5150562;27;20055;-69
2022/12/22 11:36:00;;;;;;;22.02;8.60;;;;;;;;;;5165388;27;20043;-70
2022/12/22 11:38:26;;;;;;;14.85;8.35;;;;;;;;;;5144805;27;20138;-69
2022/12/22 11:41:07;;;;;;;18.05;8.88;;;;;;;;;;5144966;27;20116;-70
2022/12/22 11:43:36;;;;;;;22.23;10.07;;;;;;;;;;5164453;27;20591;-71
2022/12/22 11:46:05;;;;;;;19.73;8.88;;;;;;;;;;5161768;27;20047;-69
2022/12/22 11:48:49;;;;;;;16.90;9.35;;;;;;;;;;5161329;27;20149;-70
2022/12/22 11:51:21;;;;;;;16.58;8.60;;;;;;;;;;5155823;27;20053;-69
2022/12/22 11:54:11;;;;;;;17.15;9.10;;;;;;;;;;5153489;27;20057;-70
2022/12/22 11:56:40;;;;;;;17.75;9.32;;;;;;;;;;5152618;27;20523;-69
2022/12/22 11:59:17;;;;;;;18.20;9.10;;;;;;;;;;5155595;27;20057;-70
2022/12/22 12:01:52;;;;;;;18.73;8.45;;;;;;;;;;5158450;27;20515;-69
2022/12/22 12:04:25;;;;;;;16.30;8.15;;;;;;;;;;5163296;27;20484;-69
2022/12/22 12:06:57;;;;;;;14.23;7.97;;;;;;;;;;5146420;27;20054;-69
2022/12/22 12:09:49;;;;;;;20.35;11.73;;;;;;;;;;5146260;27;20067;-70
2022/12/22 12:12:15;;;;;;;14.63;8.77;;;;;;;;;;5154908;27;20050;-69
2022/12/22 12:14:42;;;;;;;12.77;7.10;;;;;;;;;;5164486;27;20043;-69
2022/12/22 12:17:17;;;;;;;10.70;6.30;;;;;;;;;;5163989;27;20062;-70
2022/12/22 12:20:01;;;;;;;8.32;6.10;;;;;;;;;;5144447;27;20514;-70
2022/12/22 12:22:39;;;;;;;12.55;5.25;;;;;;;;;;5163677;27;20508;-70
2022/12/22 12:25:24;;;;;;;8.98;5.40;;;;;;;;;;5163936;27;20072;-70
2022/12/22 12:27:54;;;;;;;10.45;4.88;;;;;;;;;;5152387;27;20506;-71
2022/12/22 12:30:21;;;;;;;9.43;4.70;;;;;;;;;;5164049;27;20609;-71
2022/12/22 12:33:29;;;;;;;12.43;5.75;;;;;;;;;;5164503;27;20206;-69
2022/12/22 12:36:07;;;;;;;8.38;5.22;;;;;;;;;;5161059;27;20496;-70
2022/12/22 12:38:36;;;;;;;15.27;6.00;;;;;;;;;;5164274;27;20039;-70
2022/12/22 12:41:36;;;;;;;13.27;4.88;;;;;;;;;;5149865;27;20057;-70
2022/12/22 12:44:03;;;;;;;9.38;5.32;;;;;;;;;;5146396;27;20043;-70
2022/12/22 12:46:49;;;;;;;8.70;6.03;;;;;;;;;;5151197;27;20093;-69
2022/12/22 12:49:37;;;;;;;9.15;4.85;;;;;;;;;;5109937;27;20050;-71
2022/12/22 12:52:04;;;;;;;13.63;6.13;;;;;;;;;;5163713;27;20047;-68
2022/12/22 12:54:31;;;;;;;14.90;7.95;;;;;;;;;;5163894;27;20621;-68
2022/12/22 12:56:57;;;;;;;13.70;8.27;;;;;;;;;;5164728;27;20129;-68
2022/12/22 12:59:38;;;;;;;16.55;9.60;;;;;;;;;;5164765;27;20046;-69
2022/12/22 13:02:23;;;;;;;19.85;10.82;;;;;;;;;;5161128;27;20047;-68
2022/12/22 13:05:11;;;;;;;18.88;11.32;;;;;;;;;;5163828;27;20059;-71
2022/12/22 13:07:57;;;;;;;21.63;11.95;;;;;;;;;;5151812;27;20049;-72
2022/12/22 13:10:24;;;;;;;25.83;15.80;;;;;;;;;;5161629;27;20046;-70
2022/12/22 13:12:52;;;;;;;24.25;13.07;;;;;;;;;;5154621;27;20301;-69
2022/12/22 13:15:26;;;;;;;19.35;11.57;;;;;;;;;;5149024;27;20050;-69
2022/12/22 13:17:52;;;;;;;23.77;12.10;;;;;;;;;;5163845;27;20051;-69
2022/12/22 13:20:26;;;;;;;27.60;13.52;;;;;;;;;;5161031;27;20130;-70
2022/12/22 13:22:54;;;;;;;26.65;13.52;;;;;;;;;;5162463;27;20057;-70
2022/12/22 13:25:21;;;;;;;24.27;12.75;;;;;;;;;;5161502;27;20047;-68
2022/12/22 13:27:49;;;;;;;27.67;13.52;;;;;;;;;;5160041;27;20047;-69
2022/12/22 13:30:17;;;;;;;30.40;14.13;;;;;;;;;;5143674;27;20058;-69
2022/12/22 13:32:46;;;;;;;29.67;13.45;;;;;;;;;;5152550;27;20063;-69
2022/12/22 13:35:23;;;;;;;21.15;12.50;;;;;;;;;;5150847;27;20043;-69
2022/12/22 13:38:01;;;;;;;21.80;12.38;;;;;;;;;;5153561;27;20494;-69
2022/12/22 13:40:38;;;;;;;23.98;12.65;;;;;;;;;;5162694;27;20051;-70
2022/12/22 13:43:09;;;;;;;25.63;14.18;;;;;;;;;;5162250;27;20116;-70
2022/12/22 13:45:44;;;;;;;24.35;12.05;;;;;;;;;;5154112;27;20047;-70
2022/12/22 13:48:18;;;;;;;22.47;11.80;;;;;;;;;;5156328;27;20553;-69
2022/12/22 13:50:47;;;;;;;21.80;11.68;;;;;;;;;;5153579;27;20055;-69
2022/12/22 13:53:37;;;;;;;22.42;12.40;;;;;;;;;;5148473;27;20063;-69
2022/12/22 13:56:44;;;;;;;22.98;13.02;;;;;;;;;;5152324;27;20611;-70
2022/12/22 13:59:26;;;;;;;27.20;14.02;;;;;;;;;;5130390;27;20504;-68
2022/12/22 14:02:00;;;;;;;26.05;12.38;;;;;;;;;;5152138;27;20884;-70
2022/12/22 14:04:27;;;;;;;26.70;14.73;;;;;;;;;;5142641;27;20168;-69
2022/12/22 14:06:54;;;;;;;27.80;14.60;;;;;;;;;;5144032;27;20592;-70
2022/12/22 14:09:22;;;;;;;27.45;14.27;;;;;;;;;;5159114;27;20054;-69
2022/12/22 14:11:48;;;;;;;22.95;13.82;;;;;;;;;;5162159;27;20046;-69
2022/12/22 14:14:37;;;;;;;27.85;14.18;;;;;;;;;;5156602;27;20580;-69
2022/12/22 14:17:13;;;;;;;27.83;15.27;;;;;;;;;;5160168;27;20138;-68
2022/12/22 14:19:39;;;;;;;;;;;;;;;;;;5162117;27;20638;-72
2022/12/22 14:22:13;;;;;;;26.58;14.15;;;;;;;;;;5158896;27;46738;-70
2022/12/22 14:24:45;;;;;;;29.08;15.20;;;;;;;;;;5144111;27;20055;-69
2022/12/22 14:27:16;;;;;;;31.20;15.30;;;;;;;;;;5163029;27;20057;-69
2022/12/22 14:29:43;;;;;;;32.55;17.00;;;;;;;;;;5156327;27;20050;-69
2022/12/22 14:32:11;;;;;;;33.00;15.95;;;;;;;;;;5157890;27;20050;-69
2022/12/22 14:34:38;;;;;;;34.35;16.10;;;;;;;;;;5153530;27;20626;-69
2022/12/22 14:37:04;;;;;;;31.77;15.55;;;;;;;;;;5149360;27;20050;-69
2022/12/22 14:39:31;;;;;;;36.15;16.40;;;;;;;;;;5143834;27;20054;-69
2022/12/22 14:41:58;;;;;;;30.15;15.77;;;;;;;;;;5159044;27;20089;-69
2022/12/22 14:44:29;;;;;;;33.92;16.95;;;;;;;;;;5147043;27;20051;-68
2022/12/22 14:47:05;;;;;;;33.67;17.15;;;;;;;;;;5166141;27;20038;-69
2022/12/22 14:49:32;;;;;;;36.65;17.25;;;;;;;;;;5163410;27;20047;-70
2022/12/22 14:52:04;;;;;;;32.72;17.73;;;;;;;;;;5160954;27;20511;-70
2022/12/22 14:54:30;;;;;;;34.30;17.35;;;;;;;;;;5148161;27;20587;-69
2022/12/22 14:57:17;;;;;;;33.63;17.50;;;;;;;;;;5146162;27;20043;-69
2022/12/22 14:59:56;;;;;;;35.88;16.83;;;;;;;;;;5158057;27;20120;-69
2022/12/22 15:02:28;;;;;;;36.92;18.10;;;;;;;;;;5160684;27;20078;-69
2022/12/22 15:05:07;;;;;;;35.70;17.77;;;;;;;;;;5147121;27;20042;-69
2022/12/22 15:07:47;;;;;;;39.67;18.48;;;;;;;;;;5158581;27;20137;-69
2022/12/22 15:10:48;;;;;;;39.20;19.20;;;;;;;;;;5162958;27;20047;-68
2022/12/22 15:13:17;;;;;;;33.00;17.27;;;;;;;;;;5161465;27;20513;-70
2022/12/22 15:15:43;;;;;;;38.17;18.60;;;;;;;;;;5156576;27;20055;-69
2022/12/22 15:18:12;;;;;;;35.10;17.85;;;;;;;;;;5164970;27;20043;-69
2022/12/22 15:20:38;;;;;;;35.78;17.75;;;;;;;;;;5145741;27;20051;-71
2022/12/22 15:23:13;;;;;;;34.28;19.55;;;;;;;;;;5153762;27;20050;-70
2022/12/22 15:25:39;;;;;;;34.67;18.30;;;;;;;;;;5163443;27;20043;-69
2022/12/22 15:28:06;;;;;;;35.00;19.40;;;;;;;;;;5157455;27;20207;-71
2022/12/22 15:30:32;;;;;;;40.83;19.55;;;;;;;;;;5146211;27;20539;-70
2022/12/22 15:32:59;;;;;;;31.65;17.88;;;;;;;;;;5162653;27;20054;-70
2022/12/22 15:35:28;;;;;;;38.35;19.42;;;;;;;;;;5153451;27;20528;-71
2022/12/22 15:37:55;;;;;;;38.63;20.67;;;;;;;;;;5152653;27;20158;-71
2022/12/22 15:40:22;;;;;;;38.22;20.48;;;;;;;;;;5165087;27;20578;-71
2022/12/22 15:42:49;;;;;;;44.45;19.95;;;;;;;;;;5159636;27;20062;-70
2022/12/22 15:45:16;;;;;;;37.42;20.90;;;;;;;;;;5162345;27;20047;-71
2022/12/22 15:47:44;;;;;;;39.47;22.20;;;;;;;;;;5163667;27;20803;-70
2022/12/22 15:50:13;;;;;;;40.78;21.20;;;;;;;;;;5162764;27;20147;-71
2022/12/22 15:52:41;;;;;;;41.67;20.73;;;;;;;;;;5148410;27;20039;-71
2022/12/22 15:55:11;;;;;;;39.88;21.15;;;;;;;;;;5161529;27;20047;-71
2022/12/22 15:57:38;;;;;;;45.25;24.52;;;;;;;;;;5163749;27;20046;-71
2022/12/22 16:00:05;;;;;;;44.33;23.20;;;;;;;;;;5161190;27;20051;-71
2022/12/22 16:02:31;;;;;;;39.38;21.38;;;;;;;;;;5161309;27;20046;-70
2022/12/22 16:04:57;;;;;;;42.25;21.73;;;;;;;;;;5148046;27;20122;-72
2022/12/22 16:07:24;;;;;;;42.42;21.70;;;;;;;;;;5165799;27;20058;-71
2022/12/22 16:09:50;;;;;;;46.25;23.17;;;;;;;;;;5157201;27;20134;-72
2022/12/22 16:12:17;;;;;;;44.35;23.10;;;;;;;;;;5145935;27;20043;-72
2022/12/22 16:14:45;;;;;;;47.05;25.13;;;;;;;;;;5145984;27;20051;-71
2022/12/22 16:17:17;;;;;;;47.63;25.23;;;;;;;;;;5164355;27;20076;-71
2022/12/22 16:19:44;;;;;;;50.15;25.88;;;;;;;;;;5158992;27;20050;-72
2022/12/22 16:22:14;;;;;;;47.88;23.40;;;;;;;;;;5156890;27;20058;-70
2022/12/22 16:24:42;;;;;;;49.78;25.02;;;;;;;;;;5160536;27;20562;-72
2022/12/22 16:27:12;;;;;;;49.35;26.92;;;;;;;;;;5155777;27;20058;-71
2022/12/22 16:29:41;;;;;;;47.17;24.52;;;;;;;;;;5144387;27;20061;-72
2022/12/22 16:32:14;;;;;;;50.95;24.52;;;;;;;;;;5156036;27;20046;-72
2022/12/22 16:34:43;;;;;;;55.83;25.75;;;;;;;;;;5136318;27;20051;-72
2022/12/22 16:37:09;;;;;;;47.78;24.45;;;;;;;;;;5165281;27;20046;-72
2022/12/22 16:39:36;;;;;;;48.03;24.27;;;;;;;;;;5164991;27;20047;-71
2022/12/22 16:42:03;;;;;;;44.58;22.55;;;;;;;;;;5142140;27;20555;-71
2022/12/22 16:44:29;;;;;;;47.00;23.42;;;;;;;;;;5165489;27;20050;-71
2022/12/22 16:46:56;;;;;;;47.22;22.77;;;;;;;;;;5165090;27;20046;-72
2022/12/22 16:49:23;;;;;;;49.88;23.05;;;;;;;;;;5161644;27;20604;-72
2022/12/22 16:51:53;;;;;;;41.78;21.98;;;;;;;;;;5156206;27;20278;-71
2022/12/22 16:54:19;;;;;;;43.53;22.52;;;;;;;;;;5161674;27;20816;-73
2022/12/22 16:56:46;;;;;;;43.13;22.08;;;;;;;;;;5160872;27;20133;-73
2022/12/22 16:59:12;;;;;;;43.22;22.13;;;;;;;;;;5162557;27;20050;-74
2022/12/22 17:01:49;;;;;;;45.10;22.05;;;;;;;;;;5162347;27;20475;-72
2022/12/22 17:04:19;;;;;;;46.38;21.25;;;;;;;;;;5151586;27;20058;-74
2022/12/22 17:06:45;;;;;;;40.95;20.65;;;;;;;;;;5163501;27;20592;-74
2022/12/22 17:09:14;;;;;;;38.28;19.10;;;;;;;;;;5161255;27;20055;-74
2022/12/22 17:11:42;;;;;;;42.25;19.33;;;;;;;;;;5163826;27;20516;-71
2022/12/22 17:14:23;;;;;;;43.65;20.13;;;;;;;;;;5150683;27;20055;-73
2022/12/22 17:16:52;;;;;;;41.22;19.95;;;;;;;;;;5160931;27;20062;-72
2022/12/22 17:19:18;;;;;;;37.08;20.05;;;;;;;;;;5161192;27;20055;-73
2022/12/22 17:21:45;;;;;;;37.13;19.05;;;;;;;;;;5156439;27;20617;-74
2022/12/22 17:24:14;;;;;;;33.03;17.73;;;;;;;;;;5161515;27;20109;-73
2022/12/22 17:26:41;;;;;;;33.08;17.98;;;;;;;;;;5158612;27;20547;-75
2022/12/22 17:29:18;;;;;;;34.20;17.50;;;;;;;;;;5163718;27;20050;-72
2022/12/22 17:31:44;;;;;;;31.45;16.30;;;;;;;;;;5147265;27;20043;-74
2022/12/22 17:34:12;;;;;;;32.47;16.98;;;;;;;;;;5136726;27;20078;-71
2022/12/22 17:36:38;;;;;;;33.72;16.95;;;;;;;;;;5146291;27;20051;-72
2022/12/22 17:39:09;;;;;;;32.40;16.52;;;;;;;;;;5155059;27;20053;-72
2022/12/22 17:41:35;;;;;;;32.20;17.20;;;;;;;;;;5163305;27;20054;-72
2022/12/22 17:44:01;;;;;;;30.45;16.67;;;;;;;;;;5158569;27;20055;-74
2022/12/22 17:46:28;;;;;;;30.15;15.85;;;;;;;;;;5145415;27;20503;-73
2022/12/22 17:48:54;;;;;;;31.58;17.77;;;;;;;;;;5143774;27;20212;-71
2022/12/22 17:51:25;;;;;;;32.90;17.50;;;;;;;;;;5143924;27;20047;-73
2022/12/22 17:53:53;;;;;;;30.73;15.68;;;;;;;;;;5143550;27;20055;-73
2022/12/22 17:56:21;;;;;;;35.25;15.95;;;;;;;;;;5158265;27;20051;-75
2022/12/22 17:58:47;;;;;;;31.05;16.63;;;;;;;;;;5162553;27;20137;-72
2022/12/22 18:01:21;;;;;;;31.58;17.15;;;;;;;;;;5163031;27;20047;-75
2022/12/22 18:03:48;;;;;;;25.85;14.88;;;;;;;;;;5141367;27;20074;-71
2022/12/22 18:06:15;;;;;;;29.38;15.98;;;;;;;;;;5158260;27;20130;-72
2022/12/22 18:08:43;;;;;;;27.48;14.82;;;;;;;;;;5162374;27;20082;-72
2022/12/22 18:11:10;;;;;;;27.48;14.02;;;;;;;;;;5150721;27;20059;-72